Pagrindinis puslapis
METAR-TAF:

METAR-TAF

Oro uostai :

Nenana, Aliaska, Jungtinės Amerikos Valstijos

platuma: 64-33N, ilguma: 149-05W, Aukštis: 110 m

Dabartinis oras

Ataskaita buvo paskelbta 28 minutes, ne 21:53 UTC
Vėjas 7 kt iš Vakarų/Pietvakarių
Temperatūra 5°C
Drėgmė 93%
Slėgis 998 hPa
Matomumas: 8.0 km
Su prošvaistėmis ne aukštis 1300 ft
Apsiniaukę ne aukštis 2100 ft
lietus, rūkana

METAR: PANN 212153Z AUTO 25007KT 5SM -RA BR BKN013 OVC021 05/04 A2946 RMK AO2 SLP984 P0002 T00500039 TSNO

Laikas: 14:21 (22:21 UTC)


TAF: trūkstamas

Orai ataskaitas ir orų prognozės (METAR, TAF).

turimą stotys yra geltonos ir raudonos taškus žemėlapyje.

Perkelti pele per norėdami pamatyti stoties vardą.

Tada spustelėkite, norėdami matyti oro stebėjimo ir prognozės.

Norėdami pakeisti žemėlapį: spustelėkite ant žalios mygtukų su juodo kryžiaus žemyn,; žalią mygtuką su brūkšneliu, jei norite nutolinti; arba žalių rodyklių gretimoms žemėlapius.


METAR-TAF: